Hillman, MI (49746)

4:46 AM EDT on August 03, 2015 (GMT -0400)
MesoWest | | Change Station
CLOSE
Current Station
Personal Weather Station
Location: Lachine, MI
Elevation: 750 ft
Nearby Weather Stations

Elev 750 ft 45.07 °N, 83.72 °W | Updated 36 minutes ago

Overcast
Overcast
60 °F
Feels Like 60 °F
N
6
Wind Variable Wind from WNW
Gusts 11.0 mph

Today
High -- | Low -- °F
--% Chance of Precip.
Yesterday
High -- | Low -- °F
Precip. -- in
6:22 AM 8:59 PM
Waning Gibbous, 88% visible
Pressure 29.65 in
Visibility 10.0 miles
Clouds Mostly Cloudy 900 ft
Dew Point 59 °F
Humidity 95%
Rainfall in
Snow Depth Not available.
UV 0 out of 12
Pollen 3.70 out of 12
Air Quality Not available.
Flu Activity Not available.
SPECI KAPN 030815Z AUTO 29005KT 10SM BKN009 17/15 A2965 RMK AO2 CIG 006V011 T01670150

More Conditions Fewer Conditions

Pressure 29.65 in
Visibility 10.0 miles
Clouds Mostly Cloudy 900 ft
Dew Point 59 °F
Humidity 95%
Rainfall in
Snow Depth Not available.
UV 0 out of 12
Pollen 3.70 out of 12
Air Quality Not available.
Flu Activity Not available.
SPECI KAPN 030815Z AUTO 29005KT 10SM BKN009 17/15 A2965 RMK AO2 CIG 006V011 T01670150

More Conditions Fewer Conditions

Nowcast | as of 3:00 am EDT on August 3, 2015

At 4 am...mostly cloudy. Patchy fog. Temperature 58. Light winds. At 6 am...mostly cloudy. Patchy fog. Temperature 57. West winds 5 mph. At 8 am...partly cloudy. Isolated thunderstorms. Temperature 59. West winds 6 mph. At 10 am...partly cloudy. Isolated thunderstorms. Temperature 65. West winds 8 mph.

×

10-Day Weather Forecast

×

Almanac

Astronomy

Aug. 03, 2015 Rise Set
Actual Time
Civil Twilight
Nautical Twilight
Astronomical Twilight
Moon
Length of Visible Light
Length of Day
Tomorrow will be .
, % of the Moon is Illuminated

Today's Extremes

State Highs State Lows

Community

WunderPhotos

Upload Photos

1,843,592 photos uploaded!

WunderBlogs® & News

Nearby

Air Quality

  Air Quality AQ Index Pollutant
Not available.

Snow Depth

Station Depth Elevation

Earthquake Activity

City Distance Mag. Time & Date
Minimum magnitude displayed is 2.5.

Coastal Water Temperatures

Place Temperature

Stations

Nearby Weather Stations

Station Location Temp. Windchill Dew Point Humidity Wind Precip. Elev Updated Type